createdAt,value
2022-08-09T00:00:13.976Z,101019.50
2022-08-09T00:02:42.782Z,101015.66
2022-08-09T00:06:15.598Z,101018.16
2022-08-09T00:08:10.117Z,101006.13
2022-08-09T00:10:38.872Z,101017.09
2022-08-09T00:13:16.752Z,101019.25
2022-08-09T00:15:57.912Z,101023.41
2022-08-09T00:18:35.768Z,101020.75
2022-08-09T00:21:07.816Z,101012.09
2022-08-09T00:23:55.325Z,101015.94
2022-08-09T00:26:30.022Z,101014.09
2022-08-09T00:29:02.510Z,101006.78
2022-08-09T00:31:59.407Z,101000.91
2022-08-09T00:34:19.799Z,100993.06
2022-08-09T00:36:48.995Z,100996.06
2022-08-09T00:40:09.511Z,100995.25
2022-08-09T00:44:14.427Z,100994.75
2022-08-09T00:44:53.699Z,100985.44
2022-08-09T00:47:24.795Z,100992.09
2022-08-09T00:49:56.401Z,100999.75
2022-08-09T00:52:30.450Z,100995.06
2022-08-09T00:55:02.098Z,100997.09
2022-08-09T00:57:34.447Z,101000.41
2022-08-09T01:00:21.825Z,100989.09
2022-08-09T01:03:06.112Z,100998.41
2022-08-09T01:06:13.892Z,100993.41
2022-08-09T01:09:02.699Z,100988.06
2022-08-09T01:12:06.437Z,100994.22
2022-08-09T01:14:52.546Z,100992.03
2022-08-09T01:17:34.129Z,100992.72
2022-08-09T01:20:09.282Z,100991.38
2022-08-09T01:22:39.531Z,100988.72
2022-08-09T01:25:20.183Z,100987.69
2022-08-09T01:27:52.669Z,100989.72
2022-08-09T01:30:33.411Z,100997.19
2022-08-09T01:33:09.958Z,100988.38
2022-08-09T01:36:05.634Z,100996.34
2022-08-09T01:38:38.479Z,101003.34
2022-08-09T01:41:17.108Z,101014.03
2022-08-09T01:43:52.575Z,101012.66
2022-08-09T01:46:26.586Z,101014.69
2022-08-09T01:48:59.929Z,101013.00
2022-08-09T01:51:32.075Z,101026.97
2022-08-09T01:54:04.185Z,101024.31
2022-08-09T01:56:34.969Z,101024.31
2022-08-09T01:59:09.096Z,101033.94
2022-08-09T02:01:58.989Z,101033.31
2022-08-09T02:04:27.092Z,101035.41
2022-08-09T02:07:18.347Z,101038.66
2022-08-09T02:10:04.494Z,101038.47
2022-08-09T02:12:35.176Z,101040.88
2022-08-09T02:15:06.361Z,101040.91
2022-08-09T02:18:01.043Z,101039.59
2022-08-09T02:20:32.839Z,101055.66
2022-08-09T02:23:27.926Z,101054.47
2022-08-09T02:26:01.407Z,101058.78
2022-08-09T02:28:46.083Z,101053.16
2022-08-09T02:31:36.235Z,101061.50
2022-08-09T02:34:13.810Z,101052.41
2022-08-09T02:36:56.366Z,101054.34
2022-08-09T02:39:41.995Z,101058.00
2022-08-09T02:42:18.059Z,101049.13
2022-08-09T02:44:52.810Z,101054.13
2022-08-09T02:47:23.370Z,101051.09
2022-08-09T02:50:01.535Z,101041.78
2022-08-09T02:52:41.323Z,101046.19
2022-08-09T02:55:20.786Z,101046.19
2022-08-09T02:58:32.490Z,101031.34
2022-08-09T03:00:57.913Z,101033.84
2022-08-09T03:04:13.295Z,101030.50
2022-08-09T03:06:17.025Z,101030.16
2022-08-09T03:08:46.438Z,101033.44
2022-08-09T03:12:04.724Z,101034.28
2022-08-09T03:14:06.667Z,101030.09
2022-08-09T03:16:37.362Z,101025.91
2022-08-09T03:19:14.341Z,101022.06
2022-08-09T03:21:58.800Z,101022.38
2022-08-09T03:24:31.246Z,101020.69
2022-08-09T03:27:10.867Z,101008.69
2022-08-09T03:29:57.224Z,101009.69
2022-08-09T03:32:26.857Z,101005.34
2022-08-09T03:34:56.244Z,101006.00
2022-08-09T03:37:56.157Z,101004.81
2022-08-09T03:40:13.681Z,101004.63
2022-08-09T03:42:46.814Z,101009.28
2022-08-09T03:45:15.602Z,101010.56
2022-08-09T03:47:46.686Z,101017.25
2022-08-09T03:50:27.724Z,101017.25
2022-08-09T03:52:59.789Z,101020.56
2022-08-09T03:55:30.159Z,101017.91
2022-08-09T03:58:09.832Z,101023.22
2022-08-09T04:00:45.745Z,101029.78
2022-08-09T04:03:24.741Z,101036.16
2022-08-09T04:06:05.838Z,101031.97
2022-08-09T04:08:35.978Z,101033.44
2022-08-09T04:11:03.370Z,101041.13
2022-08-09T04:14:36.734Z,101044.69
2022-08-09T04:16:21.644Z,101050.47
2022-08-09T04:18:51.082Z,101052.16
2022-08-09T04:21:19.196Z,101055.03
2022-08-09T04:23:52.430Z,101060.88
2022-08-09T04:26:23.164Z,101057.03
2022-08-09T04:28:52.382Z,101057.38
2022-08-09T04:31:22.456Z,101053.97
2022-08-09T04:33:57.065Z,101060.38
2022-08-09T04:36:28.799Z,101065.69
2022-08-09T04:39:01.498Z,101067.53
2022-08-09T04:41:32.846Z,101068.44
2022-08-09T04:44:09.416Z,101072.16
2022-08-09T04:46:58.384Z,101070.09
2022-08-09T04:49:52.837Z,101079.00
2022-08-09T04:52:27.989Z,101075.72
2022-08-09T04:54:57.761Z,101073.59
2022-08-09T04:57:27.143Z,101070.69
2022-08-09T05:00:16.663Z,101080.72
2022-08-09T05:02:48.581Z,101072.69
2022-08-09T05:05:32.263Z,101076.03
2022-08-09T05:08:08.675Z,101079.38
2022-08-09T05:10:36.831Z,101093.38
2022-08-09T05:13:04.493Z,101094.44
2022-08-09T05:15:39.320Z,101088.22
2022-08-09T05:18:42.563Z,101090.00
2022-08-09T05:21:03.465Z,101095.72
2022-08-09T05:23:54.103Z,101100.59
2022-08-09T05:26:35.998Z,101097.41
2022-08-09T05:29:04.953Z,101095.66
2022-08-09T05:31:44.158Z,101098.72
2022-08-09T05:34:16.911Z,101091.41
2022-08-09T05:36:46.808Z,101092.47
2022-08-09T05:39:28.502Z,101104.19
2022-08-09T05:42:01.506Z,101089.03
2022-08-09T05:44:32.585Z,101094.25
2022-08-09T05:47:05.571Z,101093.28
2022-08-09T05:50:23.611Z,101095.53
2022-08-09T05:52:24.833Z,101097.09
2022-08-09T05:54:52.399Z,101096.47
2022-08-09T05:57:19.693Z,101095.00
2022-08-09T05:59:52.837Z,101094.16
2022-08-09T06:02:20.581Z,101099.19
2022-08-09T06:04:49.374Z,101097.00
2022-08-09T06:07:21.194Z,101104.09
2022-08-09T06:10:01.433Z,101105.03
2022-08-09T06:12:30.857Z,101100.53
2022-08-09T06:15:01.572Z,101106.72
2022-08-09T06:17:39.148Z,101099.38
2022-08-09T06:20:08.543Z,101110.06
2022-08-09T06:22:36.842Z,101111.63
2022-08-09T06:25:04.870Z,101107.56
2022-08-09T06:27:42.032Z,101098.56
2022-08-09T06:30:14.112Z,101107.28
2022-08-09T06:33:00.648Z,101103.72
2022-08-09T06:35:55.702Z,101108.75
2022-08-09T06:38:19.682Z,101105.81
2022-08-09T06:40:59.419Z,101101.50
2022-08-09T06:43:34.406Z,101103.88
2022-08-09T06:46:05.019Z,101106.25
2022-08-09T06:48:35.427Z,101108.22
2022-08-09T06:51:04.427Z,101113.91
2022-08-09T06:53:33.420Z,101107.75
2022-08-09T06:56:08.004Z,101099.91
2022-08-09T07:00:46.551Z,101110.56
2022-08-09T07:01:27.616Z,101116.56
2022-08-09T07:04:20.226Z,101112.22
2022-08-09T07:06:53.289Z,101109.91
2022-08-09T07:09:57.034Z,101115.94
2022-08-09T07:12:17.403Z,101112.13
2022-08-09T07:14:51.293Z,101123.47
2022-08-09T07:17:21.723Z,101117.31
2022-08-09T07:19:55.150Z,101119.31
2022-08-09T07:22:34.735Z,101121.34
2022-08-09T07:25:09.622Z,101126.84
2022-08-09T07:27:42.951Z,101118.81
2022-08-09T07:30:21.757Z,101115.31
2022-08-09T07:32:52.116Z,101120.31
2022-08-09T07:35:19.740Z,101123.34
2022-08-09T07:37:49.141Z,101131.34
2022-08-09T07:40:20.790Z,101129.34
2022-08-09T07:42:57.026Z,101132.00
2022-08-09T07:45:39.208Z,101122.66
2022-08-09T07:48:28.585Z,101132.00
2022-08-09T07:51:09.227Z,101123.63
2022-08-09T07:54:05.430Z,101118.28
2022-08-09T07:56:44.715Z,101126.06
2022-08-09T07:59:34.178Z,101128.19
2022-08-09T08:02:07.023Z,101133.25
2022-08-09T08:04:36.651Z,101133.69
2022-08-09T08:07:57.389Z,101132.84
2022-08-09T08:10:04.576Z,101128.78
2022-08-09T08:12:43.456Z,101122.75
2022-08-09T08:15:16.663Z,101126.38
2022-08-09T08:17:54.846Z,101123.03
2022-08-09T08:20:29.272Z,101131.25
2022-08-09T08:23:15.711Z,101128.31
2022-08-09T08:25:49.713Z,101116.91
2022-08-09T08:28:25.952Z,101122.03
2022-08-09T08:31:14.126Z,101123.03
2022-08-09T08:33:52.268Z,101116.69
2022-08-09T08:36:28.501Z,101122.53
2022-08-09T08:38:57.147Z,101117.31
2022-08-09T08:41:24.656Z,101118.91
2022-08-09T08:44:10.776Z,101123.31
2022-08-09T08:46:59.814Z,101118.31
2022-08-09T08:49:38.669Z,101103.03
2022-08-09T08:52:58.248Z,101117.09
2022-08-09T08:55:10.632Z,101118.19
2022-08-09T08:57:38.200Z,101110.69
2022-08-09T09:00:17.312Z,101110.97
2022-08-09T09:02:52.519Z,101119.41
2022-08-09T09:05:55.157Z,101119.25
2022-08-09T09:08:30.141Z,101112.03
2022-08-09T09:11:04.273Z,101118.03
2022-08-09T09:13:55.076Z,101115.66
2022-08-09T09:16:32.155Z,101117.31
2022-08-09T09:22:00.578Z,101120.63
2022-08-09T09:24:32.679Z,101116.75
2022-08-09T09:27:03.757Z,101119.41
2022-08-09T09:29:46.056Z,101114.22
2022-08-09T09:32:35.174Z,101113.09
2022-08-09T09:35:10.972Z,101108.75
2022-08-09T09:37:45.651Z,101113.00
2022-08-09T09:40:13.285Z,101103.66
2022-08-09T09:42:46.102Z,101102.56
2022-08-09T09:45:26.744Z,101106.44
2022-08-09T09:47:58.950Z,101097.22
2022-08-09T09:50:49.533Z,101087.19
2022-08-09T09:53:43.776Z,101089.97
2022-08-09T09:56:31.212Z,101091.81
2022-08-09T09:58:58.168Z,101085.66
2022-08-09T10:01:36.774Z,101086.78
2022-08-09T10:04:22.910Z,101087.53
2022-08-09T10:06:58.811Z,101087.16
2022-08-09T10:09:54.593Z,101092.13
2022-08-09T10:12:31.628Z,101093.97
2022-08-09T10:15:17.519Z,101098.59
2022-08-09T10:18:11.716Z,101082.72
2022-08-09T10:20:45.046Z,101089.31
2022-08-09T10:23:20.012Z,101086.44
2022-08-09T10:26:06.728Z,101085.41
2022-08-09T10:28:40.558Z,101082.19
2022-08-09T10:34:10.344Z,101084.91
2022-08-09T10:36:49.857Z,101087.22
2022-08-09T10:39:23.294Z,101090.69
2022-08-09T10:41:55.971Z,101085.25
2022-08-09T10:44:26.503Z,101073.38
2022-08-09T10:48:12.078Z,101075.03
2022-08-09T10:50:31.329Z,101065.16
2022-08-09T10:53:00.380Z,101070.19
2022-08-09T10:55:49.253Z,101057.53
2022-08-09T10:58:37.408Z,101059.59
2022-08-09T11:03:02.872Z,101059.56
2022-08-09T11:04:27.995Z,101066.16
2022-08-09T11:07:00.384Z,101059.28
2022-08-09T11:09:47.438Z,101051.28
2022-08-09T11:12:17.388Z,101060.69
2022-08-09T11:14:48.658Z,101056.78
2022-08-09T11:17:19.408Z,101053.63
2022-08-09T11:20:20.522Z,101047.97
2022-08-09T11:22:55.644Z,101045.91
2022-08-09T11:25:45.247Z,101049.44
2022-08-09T11:28:34.297Z,101040.72
2022-08-09T11:31:06.813Z,101047.09
2022-08-09T11:33:51.244Z,101047.50
2022-08-09T11:36:30.471Z,101035.47
2022-08-09T11:39:04.824Z,101041.78
2022-08-09T11:41:38.163Z,101027.47
2022-08-09T11:44:08.665Z,101033.84
2022-08-09T11:46:54.005Z,101031.38
2022-08-09T11:50:53.273Z,101029.59
2022-08-09T11:53:16.650Z,101025.78
2022-08-09T11:55:52.687Z,101018.63
2022-08-09T11:58:33.039Z,101018.38
2022-08-09T12:01:23.775Z,101016.88
2022-08-09T12:04:06.342Z,101021.13
2022-08-09T12:06:35.536Z,101016.25
2022-08-09T12:09:15.264Z,101014.16
2022-08-09T12:12:02.647Z,101016.25
2022-08-09T12:14:40.752Z,101009.31
2022-08-09T12:17:27.916Z,101004.72
2022-08-09T12:20:21.432Z,101004.63
2022-08-09T12:23:02.222Z,100996.41
2022-08-09T12:25:37.457Z,100997.25
2022-08-09T12:29:11.739Z,100994.06
2022-08-09T12:31:10.750Z,100987.00
2022-08-09T12:34:00.892Z,100981.66
2022-08-09T12:36:32.157Z,100983.19
2022-08-09T12:39:01.616Z,100985.44
2022-08-09T12:41:39.319Z,100989.41
2022-08-09T12:44:09.689Z,100987.91
2022-08-09T12:46:49.262Z,100989.41
2022-08-09T12:49:18.581Z,100973.88
2022-08-09T12:52:01.204Z,100972.66
2022-08-09T12:56:11.592Z,100969.19
2022-08-09T12:57:51.084Z,100966.72
2022-08-09T13:00:35.995Z,100964.66
2022-08-09T13:03:07.830Z,100958.94
2022-08-09T13:05:51.657Z,100947.13
2022-08-09T13:08:40.494Z,100947.34
2022-08-09T13:11:22.731Z,100946.13
2022-08-09T13:14:38.607Z,100942.84
2022-08-09T13:16:54.819Z,100948.63
2022-08-09T13:20:10.665Z,100946.53
2022-08-09T13:23:01.787Z,100934.13
2022-08-09T13:25:13.680Z,100932.06
2022-08-09T13:27:55.206Z,100930.56
2022-08-09T13:30:50.716Z,100927.47
2022-08-09T13:33:23.374Z,100928.50
2022-08-09T13:36:24.079Z,100920.22
2022-08-09T13:38:56.767Z,100916.72
2022-08-09T13:41:58.352Z,100923.53
2022-08-09T13:44:17.008Z,100922.09
2022-08-09T13:47:26.887Z,100923.69
2022-08-09T13:49:39.440Z,100921.25
2022-08-09T13:52:23.497Z,100910.25
2022-08-09T13:55:00.373Z,100910.91
2022-08-09T13:57:40.250Z,100910.47
2022-08-09T14:00:18.180Z,100913.81
2022-08-09T14:03:02.721Z,100902.19
2022-08-09T14:05:58.910Z,100909.03
2022-08-09T14:08:31.585Z,100892.69
2022-08-09T14:11:01.201Z,100897.63
2022-08-09T14:14:23.003Z,100897.22
2022-08-09T14:16:28.308Z,100897.25
2022-08-09T14:18:59.516Z,100891.81
2022-08-09T14:21:29.217Z,100894.47
2022-08-09T14:24:01.314Z,100894.31
2022-08-09T14:26:34.281Z,100896.41
2022-08-09T14:30:03.940Z,100890.19
2022-08-09T14:31:57.572Z,100893.50
2022-08-09T14:34:31.165Z,100880.22
2022-08-09T14:37:06.152Z,100885.19
2022-08-09T14:39:48.040Z,100880.03
2022-08-09T14:42:28.730Z,100878.13
2022-08-09T14:46:39.940Z,100882.31
2022-08-09T14:47:58.198Z,100875.47
2022-08-09T14:50:31.105Z,100882.31
2022-08-09T14:53:00.774Z,100874.00
2022-08-09T14:55:32.394Z,100868.63
2022-08-09T14:58:05.275Z,100881.91
2022-08-09T15:00:36.115Z,100876.09
2022-08-09T15:03:09.006Z,100869.47
2022-08-09T15:05:39.120Z,100869.03
2022-08-09T15:08:10.267Z,100862.41
2022-08-09T15:10:39.054Z,100874.03
2022-08-09T15:13:08.846Z,100868.22
2022-08-09T15:15:43.673Z,100878.56
2022-08-09T15:18:14.310Z,100870.69
2022-08-09T15:21:58.696Z,100863.81
2022-08-09T15:24:03.689Z,100865.75
2022-08-09T15:26:31.279Z,100861.53
2022-08-09T15:29:04.017Z,100855.91
2022-08-09T15:31:41.738Z,100854.94
2022-08-09T15:34:31.977Z,100850.44
2022-08-09T15:36:59.632Z,100853.31
2022-08-09T15:39:34.587Z,100848.34
2022-08-09T15:42:16.400Z,100837.56
2022-08-09T15:44:48.654Z,100851.25
2022-08-09T15:47:22.900Z,100852.47
2022-08-09T15:50:04.717Z,100858.69
2022-08-09T15:52:37.759Z,100844.63
2022-08-09T15:55:08.245Z,100852.28
2022-08-09T15:57:44.205Z,100853.53
2022-08-09T16:00:25.465Z,100839.25
2022-08-09T16:02:56.510Z,100844.41
2022-08-09T16:05:47.158Z,100839.59
2022-08-09T16:08:29.601Z,100846.66
2022-08-09T16:11:03.440Z,100849.97
2022-08-09T16:14:05.924Z,100844.16
2022-08-09T16:16:20.002Z,100842.53
2022-08-09T16:18:53.786Z,100850.78
2022-08-09T16:21:25.234Z,100843.34
2022-08-09T16:24:01.793Z,100834.59
2022-08-09T16:26:35.437Z,100832.56
2022-08-09T16:29:11.394Z,100839.38
2022-08-09T16:32:19.750Z,100842.47
2022-08-09T16:34:56.060Z,100834.00
2022-08-09T16:37:54.683Z,100842.06
2022-08-09T16:40:13.562Z,100846.19
2022-08-09T16:42:45.631Z,100841.97
2022-08-09T16:45:18.807Z,100858.13
2022-08-09T16:48:43.282Z,100860.53
2022-08-09T16:50:38.485Z,100853.50
2022-08-09T16:53:08.783Z,100865.47
2022-08-09T16:55:58.777Z,100872.50
2022-08-09T16:58:28.022Z,100860.44
2022-08-09T17:00:56.246Z,100883.59
2022-08-09T17:03:23.996Z,100870.72
2022-08-09T17:06:08.686Z,100888.03
2022-08-09T17:08:59.879Z,100876.38
2022-08-09T17:11:40.758Z,100879.66
2022-08-09T17:14:25.961Z,100880.00
2022-08-09T17:16:59.520Z,100879.50
2022-08-09T17:19:47.312Z,100883.78
2022-08-09T17:22:25.006Z,100889.03
2022-08-09T17:25:03.741Z,100880.53
2022-08-09T17:27:34.855Z,100898.31
2022-08-09T17:30:12.911Z,100899.97
2022-08-09T17:32:45.538Z,100901.28
2022-08-09T17:35:16.122Z,100904.59
2022-08-09T17:38:11.435Z,100916.59
2022-08-09T17:40:34.763Z,100915.19
2022-08-09T17:43:32.850Z,100918.13
2022-08-09T17:46:02.942Z,100922.03
2022-08-09T17:48:38.819Z,100923.88
2022-08-09T17:51:18.352Z,100929.63
2022-08-09T17:53:51.968Z,100918.75
2022-08-09T17:56:28.896Z,100934.97
2022-08-09T17:58:59.455Z,100930.34
2022-08-09T18:01:57.788Z,100934.72
2022-08-09T18:04:20.121Z,100952.50
2022-08-09T18:06:53.997Z,100951.25
2022-08-09T18:09:41.019Z,100959.13
2022-08-09T18:12:19.549Z,100956.63
2022-08-09T18:14:54.531Z,100941.31
2022-08-09T18:18:03.453Z,100957.00
2022-08-09T18:20:57.831Z,100960.31
2022-08-09T18:23:06.998Z,100968.94
2022-08-09T18:25:52.761Z,100974.97
2022-08-09T18:30:39.436Z,100965.22
2022-08-09T18:31:12.214Z,100978.72
2022-08-09T18:33:40.400Z,100977.78
2022-08-09T18:36:14.238Z,100980.03
2022-08-09T18:38:56.085Z,100986.13
2022-08-09T18:41:28.759Z,100987.25
2022-08-09T18:43:56.420Z,100986.63
2022-08-09T18:46:49.929Z,100986.06
2022-08-09T18:49:15.572Z,100994.13
2022-08-09T18:51:54.908Z,101001.91
2022-08-09T18:54:28.968Z,101002.44
2022-08-09T18:57:05.295Z,101001.09
2022-08-09T18:59:37.336Z,101011.13
2022-08-09T19:02:11.888Z,101012.78
2022-08-09T19:04:47.476Z,101008.47
2022-08-09T19:07:16.464Z,101016.13
2022-08-09T19:10:15.805Z,101030.84
2022-08-09T19:12:36.931Z,101031.84
2022-08-09T19:15:07.845Z,101038.19
2022-08-09T19:17:54.330Z,101038.81
2022-08-09T19:20:23.577Z,101044.84
2022-08-09T19:22:54.074Z,101044.13
2022-08-09T19:25:42.574Z,101050.50
2022-08-09T19:28:13.160Z,101056.50
2022-08-09T19:30:44.339Z,101045.13
2022-08-09T19:33:19.397Z,101054.66
2022-08-09T19:35:57.595Z,101047.16
2022-08-09T19:38:27.455Z,101053.47
2022-08-09T19:40:59.786Z,101049.75
2022-08-09T19:44:00.479Z,101054.34
2022-08-09T19:46:35.553Z,101050.44
2022-08-09T19:50:09.610Z,101048.50
2022-08-09T19:51:57.030Z,101056.44
2022-08-09T19:54:27.757Z,101053.47
2022-08-09T19:56:57.244Z,101060.13
2022-08-09T19:59:57.838Z,101070.47
2022-08-09T20:04:11.032Z,101066.09
2022-08-09T20:05:14.700Z,101061.06
2022-08-09T20:07:58.786Z,101063.06
2022-08-09T20:10:34.436Z,101062.97
2022-08-09T20:13:05.213Z,101066.13
2022-08-09T20:16:35.773Z,101071.72
2022-08-09T20:18:27.819Z,101067.72
2022-08-09T20:20:57.303Z,101070.03
2022-08-09T20:23:39.291Z,101067.69
2022-08-09T20:26:10.172Z,101061.94
2022-08-09T20:28:48.519Z,101068.31
2022-08-09T20:31:18.276Z,101071.25
2022-08-09T20:33:52.363Z,101080.44
2022-08-09T20:36:27.306Z,101079.59
2022-08-09T20:40:13.772Z,101082.78
2022-08-09T20:41:43.626Z,101084.56
2022-08-09T20:44:11.178Z,101087.47
2022-08-09T20:46:42.663Z,101090.66
2022-08-09T20:49:16.137Z,101092.06
2022-08-09T20:51:50.560Z,101090.81
2022-08-09T20:54:19.752Z,101088.72
2022-08-09T20:56:49.440Z,101087.47
2022-08-09T20:59:24.833Z,101083.09
2022-08-09T21:02:05.713Z,101076.50
2022-08-09T21:05:56.585Z,101082.03
2022-08-09T21:07:30.065Z,101091.56
2022-08-09T21:10:06.755Z,101089.66
2022-08-09T21:12:37.666Z,101089.97
2022-08-09T21:15:12.744Z,101095.38
2022-08-09T21:18:21.067Z,101089.47
2022-08-09T21:20:31.622Z,101079.78
2022-08-09T21:22:59.745Z,101079.94
2022-08-09T21:25:56.185Z,101088.31
2022-08-09T21:28:34.931Z,101099.25
2022-08-09T21:31:16.213Z,101099.59
2022-08-09T21:33:49.431Z,101094.97
2022-08-09T21:36:25.927Z,101092.78
2022-08-09T21:38:59.825Z,101097.06
2022-08-09T21:42:00.273Z,101095.28
2022-08-09T21:44:33.745Z,101097.78
2022-08-09T21:47:05.324Z,101102.06
2022-08-09T21:49:39.499Z,101104.03
2022-08-09T21:52:18.308Z,101110.25
2022-08-09T21:55:04.196Z,101106.16
2022-08-09T21:57:38.249Z,101113.31
2022-08-09T22:00:32.433Z,101113.66
2022-08-09T22:03:06.773Z,101112.53
2022-08-09T22:05:37.272Z,101120.91
2022-08-09T22:08:14.086Z,101123.50
2022-08-09T22:11:50.136Z,101121.81
2022-08-09T22:13:34.618Z,101118.00
2022-08-09T22:16:07.259Z,101122.03
2022-08-09T22:18:37.339Z,101123.34
2022-08-09T22:21:09.356Z,101106.44
2022-08-09T22:23:58.997Z,101123.78
2022-08-09T22:26:34.791Z,101126.81
2022-08-09T22:31:57.049Z,101122.72
2022-08-09T22:34:28.549Z,101135.75
2022-08-09T22:36:57.993Z,101131.34
2022-08-09T22:39:57.501Z,101127.16
2022-08-09T22:42:16.223Z,101144.25
2022-08-09T22:45:00.557Z,101137.34
2022-08-09T22:48:33.905Z,101141.34
2022-08-09T22:50:29.524Z,101138.56
2022-08-09T22:52:58.765Z,101133.31
2022-08-09T22:55:39.697Z,101134.13
2022-08-09T22:58:32.182Z,101134.16
2022-08-09T23:01:03.174Z,101134.72
2022-08-09T23:04:03.622Z,101131.63
2022-08-09T23:06:30.007Z,101133.03
2022-08-09T23:09:07.030Z,101137.81
2022-08-09T23:11:34.875Z,101135.84
2022-08-09T23:14:03.662Z,101145.19
2022-08-09T23:16:31.852Z,101140.31
2022-08-09T23:19:00.165Z,101139.75
2022-08-09T23:21:33.445Z,101138.94
2022-08-09T23:24:05.974Z,101154.13
2022-08-09T23:26:40.323Z,101145.88
2022-08-09T23:29:11.452Z,101146.31
2022-08-09T23:31:39.748Z,101162.38
2022-08-09T23:34:07.445Z,101145.75
2022-08-09T23:36:36.297Z,101152.88
2022-08-09T23:39:06.244Z,101148.09
2022-08-09T23:41:35.150Z,101150.81
2022-08-09T23:44:05.309Z,101155.22
2022-08-09T23:46:33.347Z,101146.25
2022-08-09T23:49:01.498Z,101130.38
2022-08-09T23:51:29.267Z,101134.22
2022-08-09T23:54:02.458Z,101136.28
2022-08-09T23:56:52.207Z,101133.78
2022-08-09T23:59:22.207Z,101139.13
